createdAt,value
2018-05-13T00:02:26.278Z,31.63
2018-05-13T00:04:54.421Z,27.13
2018-05-13T00:07:22.645Z,48.13
2018-05-13T00:09:50.772Z,28.80
2018-05-13T00:12:18.964Z,29.93
2018-05-13T00:14:47.094Z,27.90
2018-05-13T00:17:15.268Z,31.23
2018-05-13T00:19:43.421Z,38.43
2018-05-13T00:22:11.593Z,31.27
2018-05-13T00:24:39.732Z,34.50
2018-05-13T00:27:07.918Z,43.50
2018-05-13T00:29:36.829Z,40.47
2018-05-13T00:32:04.991Z,46.70
2018-05-13T00:34:33.153Z,33.33
2018-05-13T00:37:02.077Z,32.20
2018-05-13T00:39:30.230Z,36.83
2018-05-13T00:41:58.437Z,37.17
2018-05-13T00:44:26.596Z,38.40
2018-05-13T00:46:54.771Z,34.43
2018-05-13T00:49:23.778Z,32.50
2018-05-13T00:51:51.966Z,37.80
2018-05-13T00:57:27.333Z,37.00
2018-05-13T00:59:55.605Z,36.87
2018-05-13T01:02:23.742Z,32.80
2018-05-13T01:04:51.893Z,41.83
2018-05-13T01:07:20.818Z,39.70
2018-05-13T01:09:48.982Z,41.20
2018-05-13T01:12:17.097Z,39.40
2018-05-13T01:14:45.278Z,34.37
2018-05-13T01:17:13.438Z,34.73
2018-05-13T01:19:41.590Z,34.23
2018-05-13T01:22:09.797Z,34.87
2018-05-13T01:24:37.970Z,44.40
2018-05-13T01:27:06.089Z,46.47
2018-05-13T01:29:34.361Z,41.73
2018-05-13T01:32:02.512Z,40.93
2018-05-13T01:34:31.399Z,45.20
2018-05-13T01:37:00.331Z,43.87
2018-05-13T01:39:28.511Z,40.87
2018-05-13T01:41:56.664Z,45.07
2018-05-13T01:44:24.816Z,42.97
2018-05-13T01:46:53.029Z,43.77
2018-05-13T01:49:21.185Z,40.83
2018-05-13T01:51:49.324Z,39.47
2018-05-13T01:54:18.745Z,39.57
2018-05-13T01:56:46.928Z,54.27
2018-05-13T01:59:15.169Z,42.20
2018-05-13T02:01:43.337Z,45.77
2018-05-13T02:04:12.969Z,48.03
2018-05-13T02:52:33.773Z,43.80
2018-05-13T02:55:01.940Z,52.73
2018-05-13T02:57:30.085Z,55.60
2018-05-13T02:59:59.341Z,56.20
2018-05-13T03:02:27.509Z,61.33
2018-05-13T03:04:55.692Z,57.17
2018-05-13T03:07:23.825Z,57.60
2018-05-13T03:09:51.993Z,66.20
2018-05-13T03:12:20.144Z,65.07
2018-05-13T03:14:49.068Z,71.97
2018-05-13T03:17:17.249Z,64.50
2018-05-13T03:19:45.405Z,68.83
2018-05-13T03:22:13.550Z,69.93
2018-05-13T03:24:43.124Z,75.40
2018-05-13T03:27:11.286Z,71.47
2018-05-13T03:29:39.418Z,65.23
2018-05-13T03:32:07.543Z,67.83
2018-05-13T03:34:35.772Z,69.07
2018-05-13T03:37:03.893Z,67.33
2018-05-13T03:39:32.195Z,63.63
2018-05-13T03:42:01.085Z,63.50
2018-05-13T03:44:29.981Z,70.97
2018-05-13T03:46:59.041Z,70.73
2018-05-13T03:49:27.201Z,72.43
2018-05-13T03:51:55.361Z,71.20
2018-05-13T03:54:23.508Z,67.47
2018-05-13T03:56:51.667Z,71.73
2018-05-13T03:59:20.770Z,64.13
2018-05-13T04:01:48.913Z,64.03
2018-05-13T04:04:17.881Z,66.50
2018-05-13T04:06:46.160Z,69.87
2018-05-13T04:09:32.332Z,62.03
2018-05-13T04:12:18.537Z,56.37
2018-05-13T04:15:04.531Z,54.47
2018-05-13T04:17:32.657Z,52.80
2018-05-13T04:20:01.568Z,58.30
2018-05-13T04:22:29.737Z,54.33
2018-05-13T04:24:57.895Z,54.27
2018-05-13T04:27:26.053Z,54.83
2018-05-13T04:29:54.949Z,63.13
2018-05-13T04:32:23.840Z,54.37
2018-05-13T04:34:52.812Z,49.60
2018-05-13T04:37:21.718Z,47.23
2018-05-13T04:39:50.623Z,48.10
2018-05-13T04:42:18.782Z,53.03
2018-05-13T04:44:47.730Z,49.20
2018-05-13T04:47:15.868Z,44.80
2018-05-13T04:49:44.062Z,46.53
2018-05-13T04:52:12.410Z,47.53
2018-05-13T04:54:40.575Z,46.50
2018-05-13T04:57:08.760Z,53.80
2018-05-13T04:59:37.181Z,45.47
2018-05-13T05:02:05.433Z,45.47
2018-05-13T05:04:33.617Z,44.90
2018-05-13T05:07:01.778Z,42.50
2018-05-13T05:09:29.912Z,43.50
2018-05-13T05:11:58.139Z,47.80
2018-05-13T05:14:26.261Z,44.07
2018-05-13T05:16:55.219Z,49.23
2018-05-13T05:19:23.381Z,42.73
2018-05-13T05:21:51.628Z,44.57
2018-05-13T05:24:19.781Z,43.53
2018-05-13T05:26:47.929Z,47.63
2018-05-13T05:29:16.853Z,44.10
2018-05-13T05:31:45.079Z,38.23
2018-05-13T05:34:13.258Z,42.47
2018-05-13T05:36:42.166Z,39.60
2018-05-13T05:39:11.084Z,37.83
2018-05-13T05:41:39.201Z,48.73
2018-05-13T05:44:07.381Z,35.13
2018-05-13T05:46:36.342Z,39.30
2018-05-13T05:49:04.518Z,36.23
2018-05-13T05:51:32.686Z,31.13
2018-05-13T05:54:00.825Z,31.47
2018-05-13T05:56:28.960Z,35.33
2018-05-13T05:58:57.122Z,37.90
2018-05-13T06:01:25.250Z,35.93
2018-05-13T06:03:54.256Z,35.47
2018-05-13T06:06:22.426Z,31.07
2018-05-13T06:08:50.584Z,36.10
2018-05-13T06:11:18.721Z,31.40
2018-05-13T06:13:46.882Z,32.03
2018-05-13T06:16:15.000Z,32.83
2018-05-13T06:18:43.140Z,29.60
2018-05-13T06:21:11.266Z,27.67
2018-05-13T06:23:39.481Z,25.40
2018-05-13T06:26:07.699Z,25.27
2018-05-13T06:28:35.855Z,38.53
2018-05-13T06:31:04.755Z,30.40
2018-05-13T06:33:32.864Z,29.00
2018-05-13T06:36:01.026Z,28.60
2018-05-13T06:38:29.167Z,28.57
2018-05-13T06:40:57.373Z,36.70
2018-05-13T06:43:25.937Z,42.00
2018-05-13T06:45:54.130Z,21.67
2018-05-13T06:48:22.277Z,32.70
2018-05-13T06:50:50.475Z,27.70
2018-05-13T06:53:18.632Z,27.60
2018-05-13T06:55:46.823Z,24.93
2018-05-13T06:58:14.963Z,24.63
2018-05-13T07:00:43.081Z,26.23
2018-05-13T07:03:11.244Z,23.43
2018-05-13T07:05:39.380Z,22.33
2018-05-13T07:08:07.566Z,28.67
2018-05-13T07:10:35.701Z,31.37
2018-05-13T07:13:04.594Z,26.20
2018-05-13T07:15:33.508Z,28.80
2018-05-13T07:18:01.712Z,34.53
2018-05-13T07:20:29.905Z,23.33
2018-05-13T07:22:58.041Z,22.80
2018-05-13T07:25:26.198Z,21.43
2018-05-13T07:27:54.619Z,19.47
2018-05-13T07:30:22.813Z,25.50
2018-05-13T07:32:51.564Z,25.50
2018-05-13T07:35:19.720Z,22.23
2018-05-13T07:37:47.867Z,21.00
2018-05-13T07:40:16.593Z,22.57
2018-05-13T07:42:44.765Z,20.43
2018-05-13T07:45:12.909Z,25.53
2018-05-13T07:47:41.037Z,19.40
2018-05-13T07:50:09.175Z,21.93
2018-05-13T07:52:37.329Z,21.40
2018-05-13T07:55:05.497Z,26.17
2018-05-13T07:57:33.671Z,26.23
2018-05-13T08:00:01.891Z,24.03
2018-05-13T08:02:30.121Z,21.00
2018-05-13T08:04:58.294Z,27.03
2018-05-13T08:07:26.487Z,26.20
2018-05-13T08:09:54.621Z,23.80
2018-05-13T08:12:23.536Z,21.77
2018-05-13T08:14:51.730Z,20.57
2018-05-13T08:17:19.868Z,21.90
2018-05-13T08:19:48.009Z,26.40
2018-05-13T08:22:16.179Z,20.23
2018-05-13T08:24:44.330Z,25.60
2018-05-13T08:27:12.461Z,20.33
2018-05-13T08:29:40.655Z,18.30
2018-05-13T08:32:08.841Z,28.27
2018-05-13T08:34:37.096Z,20.30
2018-05-13T08:37:05.869Z,20.13
2018-05-13T08:39:34.042Z,17.63
2018-05-13T08:42:02.211Z,22.20
2018-05-13T08:44:30.366Z,17.10
2018-05-13T08:46:59.361Z,16.80
2018-05-13T08:49:28.289Z,14.63
2018-05-13T08:51:56.524Z,15.90
2018-05-13T08:54:25.503Z,19.20
2018-05-13T08:56:53.614Z,20.53
2018-05-13T08:59:21.869Z,15.20
2018-05-13T09:01:50.769Z,15.00
2018-05-13T09:04:19.086Z,17.97
2018-05-13T09:06:47.765Z,16.27
2018-05-13T09:09:15.926Z,16.00
2018-05-13T09:11:44.090Z,21.43
2018-05-13T09:14:12.316Z,32.27
2018-05-13T09:16:41.163Z,17.83
2018-05-13T09:19:09.327Z,16.30
2018-05-13T09:21:37.474Z,17.73
2018-05-13T09:24:06.411Z,16.63
2018-05-13T09:26:34.965Z,19.50
2018-05-13T09:29:03.153Z,16.53
2018-05-13T09:31:41.239Z,16.47
2018-05-13T09:34:09.410Z,15.17
2018-05-13T09:36:37.592Z,18.67
2018-05-13T09:39:07.113Z,17.27
2018-05-13T09:41:35.276Z,24.60
2018-05-13T09:44:03.409Z,18.50
2018-05-13T09:46:32.330Z,15.43
2018-05-13T09:49:00.879Z,17.30
2018-05-13T09:51:29.949Z,13.80
2018-05-13T09:53:58.209Z,15.57
2018-05-13T09:56:26.390Z,14.07
2018-05-13T09:58:54.504Z,12.27
2018-05-13T10:01:23.390Z,15.60
2018-05-13T10:03:52.346Z,14.73
2018-05-13T10:06:20.470Z,14.10
2018-05-13T10:08:48.678Z,13.73
2018-05-13T10:11:16.837Z,19.00
2018-05-13T10:13:44.956Z,16.07
2018-05-13T10:16:13.166Z,16.13
2018-05-13T10:18:41.284Z,16.33
2018-05-13T10:21:09.433Z,17.00
2018-05-13T10:23:37.562Z,14.70
2018-05-13T10:26:06.443Z,18.53
2018-05-13T10:28:35.351Z,14.77
2018-05-13T10:31:04.262Z,13.67
2018-05-13T10:33:32.421Z,14.10
2018-05-13T10:36:00.549Z,14.17
2018-05-13T10:38:28.806Z,18.73
2018-05-13T10:40:56.940Z,17.10
2018-05-13T10:43:25.144Z,17.53
2018-05-13T10:45:53.308Z,13.77
2018-05-13T10:48:21.466Z,11.97
2018-05-13T10:50:49.585Z,17.13
2018-05-13T10:53:17.805Z,11.67
2018-05-13T10:55:45.955Z,13.20
2018-05-13T10:58:14.153Z,13.50
2018-05-13T11:00:42.302Z,20.23
2018-05-13T11:03:11.217Z,12.57
2018-05-13T11:05:39.438Z,10.60
2018-05-13T11:08:08.294Z,12.37
2018-05-13T11:10:36.484Z,11.80
2018-05-13T11:13:04.734Z,10.53
2018-05-13T11:15:32.925Z,12.43
2018-05-13T11:18:01.086Z,13.33
2018-05-13T11:20:29.249Z,12.70
2018-05-13T11:22:57.389Z,9.63
2018-05-13T11:25:26.310Z,15.30
2018-05-13T11:27:54.483Z,16.23
2018-05-13T11:30:22.596Z,16.90
2018-05-13T11:32:50.728Z,11.73
2018-05-13T11:35:18.938Z,19.37
2018-05-13T11:37:47.638Z,9.77
2018-05-13T11:40:15.833Z,8.83
2018-05-13T11:42:44.790Z,9.40
2018-05-13T11:45:12.951Z,8.50
2018-05-13T11:47:41.079Z,9.13
2018-05-13T11:50:10.084Z,11.87
2018-05-13T11:52:38.242Z,9.80
2018-05-13T11:55:07.169Z,13.00
2018-05-13T11:57:35.330Z,8.07
2018-05-13T12:00:03.474Z,17.20
2018-05-13T12:02:32.417Z,10.50
2018-05-13T12:05:00.701Z,9.70
2018-05-13T12:07:29.543Z,11.50
2018-05-13T12:09:57.705Z,8.97
2018-05-13T12:12:26.625Z,9.73
2018-05-13T12:14:54.810Z,11.00
2018-05-13T12:17:22.953Z,6.83
2018-05-13T12:19:51.962Z,7.10
2018-05-13T12:22:20.114Z,12.50
2018-05-13T12:24:48.757Z,12.83
2018-05-13T12:27:16.918Z,9.50
2018-05-13T12:29:45.045Z,6.50
2018-05-13T12:32:13.203Z,8.80
2018-05-13T12:34:41.393Z,7.37
2018-05-13T12:37:09.560Z,13.10
2018-05-13T12:39:38.552Z,6.90
2018-05-13T12:42:06.682Z,7.40
2018-05-13T12:44:34.797Z,12.50
2018-05-13T12:47:03.711Z,7.00
2018-05-13T12:49:31.961Z,12.53
2018-05-13T12:52:00.186Z,5.00
2018-05-13T12:54:28.335Z,6.10
2018-05-13T12:56:56.448Z,7.67
2018-05-13T12:59:24.701Z,10.57
2018-05-13T13:01:52.867Z,6.77
2018-05-13T13:04:21.104Z,7.53
2018-05-13T13:06:49.258Z,7.13
2018-05-13T13:09:18.158Z,8.90
2018-05-13T13:11:47.023Z,6.63
2018-05-13T13:14:15.258Z,5.40
2018-05-13T13:16:43.446Z,12.73
2018-05-13T13:19:11.610Z,7.60
2018-05-13T13:21:39.840Z,10.40
2018-05-13T13:24:08.737Z,6.75
2018-05-13T13:26:36.898Z,6.72
2018-05-13T13:29:05.054Z,7.30
2018-05-13T13:34:31.717Z,5.95
2018-05-13T13:37:00.633Z,5.75
2018-05-13T13:39:28.789Z,5.25
2018-05-13T13:41:57.693Z,6.37
2018-05-13T13:44:26.704Z,6.20
2018-05-13T13:46:54.899Z,6.18
2018-05-13T13:49:23.071Z,7.50
2018-05-13T13:51:51.314Z,9.77
2018-05-13T13:54:19.486Z,4.90
2018-05-13T13:56:47.663Z,5.55
2018-05-13T13:59:16.186Z,8.50
2018-05-13T14:01:44.353Z,9.10
2018-05-13T14:04:12.526Z,9.80
2018-05-13T14:06:40.735Z,6.47
2018-05-13T14:09:09.745Z,5.95
2018-05-13T14:11:38.235Z,8.95
2018-05-13T14:14:06.459Z,7.90
2018-05-13T14:16:34.651Z,13.55
2018-05-13T14:19:03.584Z,8.73
2018-05-13T14:21:31.940Z,5.60
2018-05-13T14:24:00.841Z,7.27
2018-05-13T14:26:28.969Z,13.43
2018-05-13T14:28:57.148Z,8.18
2018-05-13T14:31:26.116Z,13.40
2018-05-13T14:33:54.271Z,6.75
2018-05-13T14:36:22.409Z,8.68
2018-05-13T14:38:50.516Z,7.25
2018-05-13T14:41:18.743Z,7.40
2018-05-13T14:43:46.826Z,6.20
2018-05-13T14:46:15.002Z,11.43
2018-05-13T14:48:43.569Z,7.45
2018-05-13T14:51:12.493Z,8.85
2018-05-13T14:53:40.682Z,8.43
2018-05-13T14:56:08.803Z,5.05
2018-05-13T14:58:38.462Z,6.97
2018-05-13T15:01:06.590Z,7.50
2018-05-13T15:03:35.525Z,10.20
2018-05-13T15:06:03.875Z,6.03
2018-05-13T15:08:32.036Z,4.90
2018-05-13T15:11:00.209Z,7.35
2018-05-13T15:13:28.387Z,6.03
2018-05-13T15:15:56.557Z,11.15
2018-05-13T15:18:24.774Z,5.70
2018-05-13T15:20:53.038Z,7.93
2018-05-13T15:23:21.310Z,5.37
2018-05-13T15:25:49.491Z,6.43
2018-05-13T15:28:17.633Z,8.93
2018-05-13T15:30:45.769Z,7.53
2018-05-13T15:33:14.038Z,5.40
2018-05-13T15:35:42.293Z,6.00
2018-05-13T15:38:11.233Z,8.07
2018-05-13T15:40:39.409Z,8.20
2018-05-13T15:43:08.227Z,6.33
2018-05-13T15:45:36.359Z,11.07
2018-05-13T15:48:05.256Z,10.67
2018-05-13T15:50:33.402Z,10.67
2018-05-13T15:53:01.549Z,6.20
2018-05-13T15:55:29.780Z,6.20
2018-05-13T15:57:57.932Z,12.40
2018-05-13T16:00:26.901Z,16.90
2018-05-13T16:02:55.845Z,15.90
2018-05-13T16:05:23.992Z,8.30
2018-05-13T16:07:52.917Z,7.43
2018-05-13T16:10:21.167Z,6.70
2018-05-13T16:12:49.357Z,10.43
2018-05-13T16:15:17.506Z,14.60
2018-05-13T16:17:46.546Z,10.40
2018-05-13T16:20:14.702Z,15.13
2018-05-13T16:22:42.861Z,12.00
2018-05-13T16:25:11.125Z,6.70
2018-05-13T16:27:39.278Z,8.43
2018-05-13T16:30:08.334Z,10.93
2018-05-13T16:32:36.448Z,8.47
2018-05-13T16:35:05.423Z,8.47
2018-05-13T16:37:33.682Z,12.50
2018-05-13T16:40:01.906Z,9.70
2018-05-13T16:45:27.864Z,8.20
2018-05-13T16:47:56.133Z,11.30
2018-05-13T16:50:24.297Z,10.73
2018-05-13T16:52:52.429Z,16.47
2018-05-13T16:55:20.643Z,7.70
2018-05-13T16:57:48.813Z,13.50
2018-05-13T17:00:16.986Z,19.93
2018-05-13T17:02:45.135Z,11.40
2018-05-13T17:05:14.082Z,15.13
2018-05-13T17:07:42.229Z,12.00
2018-05-13T17:10:10.360Z,12.00
2018-05-13T17:12:38.568Z,11.83
2018-05-13T17:15:06.731Z,11.27
2018-05-13T17:17:34.904Z,10.90
2018-05-13T17:20:04.301Z,10.10
2018-05-13T17:22:32.422Z,12.07
2018-05-13T17:25:00.703Z,11.83
2018-05-13T17:27:28.977Z,16.13
2018-05-13T17:29:57.147Z,14.07
2018-05-13T17:32:26.342Z,12.73
2018-05-13T17:34:54.457Z,17.50
2018-05-13T17:37:23.456Z,18.97
2018-05-13T17:39:51.594Z,12.37
2018-05-13T17:42:19.773Z,17.90
2018-05-13T17:44:48.025Z,16.60
2018-05-13T17:47:16.189Z,22.23
2018-05-13T17:49:44.370Z,17.43
2018-05-13T17:52:13.261Z,13.83
2018-05-13T17:54:41.403Z,10.83
2018-05-13T17:57:09.574Z,11.23
2018-05-13T17:59:38.445Z,11.67
2018-05-13T18:02:07.328Z,10.80
2018-05-13T18:04:36.294Z,18.90
2018-05-13T18:07:04.442Z,14.70
2018-05-13T18:09:32.916Z,13.50
2018-05-13T18:12:01.121Z,13.87
2018-05-13T18:14:29.247Z,13.53
2018-05-13T18:16:57.372Z,12.87
2018-05-13T18:19:25.630Z,19.90
2018-05-13T18:21:53.753Z,14.60
2018-05-13T18:24:21.945Z,13.50
2018-05-13T18:26:50.813Z,14.93
2018-05-13T18:29:19.773Z,13.73
2018-05-13T18:31:48.008Z,14.40
2018-05-13T18:34:16.128Z,16.27
2018-05-13T18:36:44.257Z,12.43
2018-05-13T18:39:12.478Z,13.20
2018-05-13T18:41:40.601Z,14.73
2018-05-13T18:44:08.776Z,12.60
2018-05-13T18:46:37.050Z,18.00
2018-05-13T18:49:05.441Z,19.20
2018-05-13T18:51:33.528Z,14.23
2018-05-13T18:54:02.557Z,13.37
2018-05-13T18:56:31.473Z,14.10
2018-05-13T18:58:59.637Z,12.73
2018-05-13T19:01:27.816Z,12.80
2018-05-13T19:03:55.937Z,21.40
2018-05-13T19:06:25.148Z,12.57
2018-05-13T19:08:53.250Z,19.07
2018-05-13T19:11:21.452Z,11.03
2018-05-13T19:13:49.590Z,18.63
2018-05-13T19:16:17.770Z,19.60
2018-05-13T19:18:45.940Z,15.60
2018-05-13T19:21:14.103Z,14.13
2018-05-13T19:23:42.270Z,17.00
2018-05-13T19:26:11.172Z,14.60
2018-05-13T19:28:39.302Z,22.80
2018-05-13T19:31:07.470Z,15.50
2018-05-13T19:33:35.629Z,15.07
2018-05-13T19:36:03.800Z,14.60
2018-05-13T19:38:31.958Z,14.63
2018-05-13T19:41:00.090Z,12.20
2018-05-13T19:43:29.065Z,16.40
2018-05-13T19:45:57.281Z,19.50
2018-05-13T19:48:26.011Z,15.07
2018-05-13T19:50:54.183Z,22.43
2018-05-13T19:53:22.377Z,13.87
2018-05-13T19:55:51.352Z,16.80
2018-05-13T19:58:19.492Z,13.17
2018-05-13T20:00:48.560Z,18.10
2018-05-13T20:03:16.878Z,20.50
2018-05-13T20:05:44.912Z,15.17
2018-05-13T20:08:13.107Z,18.57
2018-05-13T20:10:41.392Z,15.87
2018-05-13T20:13:10.196Z,21.50
2018-05-13T20:15:38.457Z,16.40
2018-05-13T20:18:06.542Z,12.60
2018-05-13T20:20:34.672Z,12.60
2018-05-13T20:23:20.717Z,13.90
2018-05-13T20:25:48.790Z,13.63
2018-05-13T20:28:16.945Z,17.25
2018-05-13T20:30:45.101Z,17.07
2018-05-13T20:33:13.285Z,15.73
2018-05-13T20:35:41.417Z,14.13
2018-05-13T20:38:09.611Z,13.37
2018-05-13T20:40:37.729Z,14.03
2018-05-13T20:43:05.887Z,18.77
2018-05-13T20:45:34.060Z,19.87
2018-05-13T20:48:02.201Z,18.70
2018-05-13T20:50:30.330Z,15.47
2018-05-13T20:52:59.250Z,16.13
2018-05-13T20:55:27.420Z,14.47
2018-05-13T20:57:55.656Z,17.60
2018-05-13T21:00:24.481Z,20.63
2018-05-13T21:02:52.716Z,14.57
2018-05-13T21:05:21.674Z,16.73
2018-05-13T21:07:49.928Z,14.57
2018-05-13T21:10:18.994Z,18.80
2018-05-13T21:12:47.928Z,16.10
2018-05-13T21:15:16.135Z,13.07
2018-05-13T21:17:44.294Z,14.53
2018-05-13T21:20:12.430Z,15.20
2018-05-13T21:22:40.549Z,13.77
2018-05-13T21:25:09.630Z,14.47
2018-05-13T21:27:38.673Z,13.30
2018-05-13T21:30:06.850Z,14.50
2018-05-13T21:32:34.996Z,15.23
2018-05-13T21:35:03.966Z,13.33
2018-05-13T21:37:32.104Z,15.37
2018-05-13T21:40:00.253Z,15.13
2018-05-13T21:42:28.425Z,18.60
2018-05-13T21:44:56.607Z,24.97
2018-05-13T21:47:25.137Z,18.03
2018-05-13T21:49:53.361Z,14.70
2018-05-13T21:52:21.570Z,14.47
2018-05-13T21:54:49.778Z,16.17
2018-05-13T21:57:18.723Z,16.87
2018-05-13T21:59:46.893Z,19.63
2018-05-13T22:02:15.037Z,21.53
2018-05-13T22:05:02.118Z,16.00
2018-05-13T22:07:30.292Z,14.60
2018-05-13T22:09:58.447Z,13.20
2018-05-13T22:12:27.236Z,16.73
2018-05-13T22:14:55.524Z,12.70
2018-05-13T22:17:23.754Z,14.87
2018-05-13T22:19:52.895Z,15.60
2018-05-13T22:22:21.052Z,16.40
2018-05-13T22:24:49.210Z,19.53
2018-05-13T22:27:17.370Z,22.70
2018-05-13T22:29:45.569Z,14.13
2018-05-13T22:32:14.493Z,12.53
2018-05-13T22:34:43.410Z,14.47
2018-05-13T22:37:11.760Z,13.97
2018-05-13T22:39:40.671Z,15.53
2018-05-13T22:42:08.789Z,15.37
2018-05-13T22:44:36.966Z,22.00
2018-05-13T22:47:05.282Z,13.07
2018-05-13T22:49:34.939Z,12.67
2018-05-13T22:52:03.062Z,17.17
2018-05-13T22:54:31.968Z,15.00
2018-05-13T22:57:00.129Z,23.27
2018-05-13T22:59:28.338Z,13.37
2018-05-13T23:01:56.513Z,21.10
2018-05-13T23:04:24.690Z,13.50
2018-05-13T23:06:53.357Z,16.30
2018-05-13T23:09:21.545Z,14.40
2018-05-13T23:11:49.737Z,15.30
2018-05-13T23:14:17.872Z,16.73
2018-05-13T23:16:46.165Z,12.50
2018-05-13T23:19:15.299Z,14.07
2018-05-13T23:21:43.537Z,13.67
2018-05-13T23:24:12.208Z,14.60
2018-05-13T23:26:40.581Z,19.10
2018-05-13T23:29:08.739Z,20.10
2018-05-13T23:31:36.896Z,13.77
2018-05-13T23:34:05.834Z,16.90
2018-05-13T23:36:33.974Z,15.33
2018-05-13T23:39:02.150Z,16.97
2018-05-13T23:41:30.325Z,18.17
2018-05-13T23:43:58.493Z,15.10
2018-05-13T23:46:26.654Z,14.30
2018-05-13T23:48:55.566Z,17.30
2018-05-13T23:51:23.720Z,17.73
2018-05-13T23:53:51.946Z,13.43
2018-05-13T23:56:20.130Z,20.43
2018-05-13T23:58:48.352Z,13.23
